Time;durP1;ratioP1;P1;durP2;ratioP2;P2;SDS_P1;SDS_P2;PMS_P1;PMS_P2;Temp;Humidity;BMP_temperature;BMP_pressure;BME280_temperature;BME280_humidity;BME280_pressure;Samples;Min_cycle;Max_cycle;Signal;HPM_P1;HPM_P2
2023/07/21 00:01:13;;;;;;;4.50;4.00;;;;;;;15.84;76.97;98463.20;226198;1277;22546;-72
2023/07/21 00:07:54;;;;;;;;;;;;;;;;;;;;;
2023/07/21 00:14:29;;;;;;;5.10;3.50;;;;;;;15.87;76.77;98463.86;226461;1277;22544;-72
2023/07/21 00:20:22;;;;;;;;;;;;;;;;;;;;;
2023/07/21 00:27:01;;;;;;;4.80;3.50;;;;;;;15.89;76.65;98466.38;226446;1277;22542;-72
2023/07/21 00:33:23;;;;;;;4.50;3.80;;;;;;;15.82;76.80;98470.45;226262;1277;22546;-71
2023/07/21 00:46:36;;;;;;;;;;;;;;;;;;;;;
2023/07/21 01:06:41;;;;;;;;;;;;;;;;;;;;;
2023/07/21 01:12:52;;;;;;;3.80;3.40;;;;;;;15.56;77.39;98449.39;226491;1277;25233;-72
2023/07/21 01:18:57;;;;;;;3.90;3.50;;;;;;;15.54;77.54;98449.46;226553;1277;23028;-72
2023/07/21 01:25:35;;;;;;;4.10;3.70;;;;;;;15.52;77.31;98448.58;226183;1277;22625;-71
2023/07/21 01:32:17;;;;;;;;;;;;;;;;;;;;;
2023/07/21 01:38:26;;;;;;;4.60;3.70;;;;;;;15.52;77.30;98450.27;226612;1277;22551;-71
2023/07/21 01:49:26;;;;;;;3.40;3.10;;;;;;;15.52;77.16;98442.35;226384;1277;22560;-71
2023/07/21 01:56:17;;;;;;;5.30;3.20;;;;;;;15.56;76.77;98446.03;226580;1277;22536;-72
2023/07/21 02:02:28;;;;;;;4.10;3.10;;;;;;;15.60;76.51;98447.29;226372;1277;22597;-71
2023/07/21 02:08:39;;;;;;;;;;;;;;;;;;;;;
2023/07/21 02:14:55;;;;;;;;;;;;;;;;;;;;;
2023/07/21 02:20:50;;;;;;;;;;;;;;;;;;;;;
2023/07/21 02:27:07;;;;;;;;;;;;;;;;;;;;;
2023/07/21 02:33:05;;;;;;;4.30;3.10;;;;;;;15.39;76.53;98450.09;226485;1277;24247;-72
2023/07/21 02:39:13;;;;;;;;;;;;;;;;;;;;;
2023/07/21 02:45:20;;;;;;;4.10;3.40;;;;;;;15.31;76.63;98447.48;226528;1277;23318;-72
2023/07/21 02:51:33;;;;;;;3.60;3.30;;;;;;;15.30;76.65;98450.73;226533;1277;22579;-71
2023/07/21 02:58:26;;;;;;;4.20;3.80;;;;;;;15.32;76.84;98451.48;226448;1277;22536;-72
2023/07/21 03:04:43;;;;;;;5.20;3.50;;;;;;;15.35;77.04;98448.95;226182;1277;22533;-72
2023/07/21 03:11:28;;;;;;;;;;;;;;;;;;;;;
2023/07/21 03:18:18;;;;;;;3.90;3.60;;;;;;;15.37;77.08;98448.27;226411;1277;22544;-73
2023/07/21 03:25:10;;;;;;;;;;;;;;;;;;;;;
2023/07/21 03:31:48;;;;;;;;;;;;;;;;;;;;;
2023/07/21 03:38:43;;;;;;;;;;;;;;;;;;;;;
2023/07/21 03:45:02;;;;;;;4.40;3.60;;;;;;;15.62;76.61;98460.55;226437;1277;22634;-72
2023/07/21 03:51:23;;;;;;;3.60;3.30;;;;;;;15.69;76.36;98456.06;226465;1277;22524;-72
2023/07/21 03:58:07;;;;;;;4.30;3.80;;;;;;;15.78;76.26;98459.31;226331;1277;22544;-72
2023/07/21 04:04:58;;;;;;;4.90;4.10;;;;;;;15.88;76.17;98457.05;226373;1277;22533;-72
2023/07/21 04:11:26;;;;;;;4.10;3.50;;;;;;;15.99;75.93;98449.39;226293;1277;22536;-72
2023/07/21 04:17:47;;;;;;;;;;;;;;;;;;;;;
2023/07/21 04:30:54;;;;;;;;;;;;;;;;;;;;;
2023/07/21 04:36:46;;;;;;;5.10;3.80;;;;;;;16.18;75.22;98439.00;226180;1277;22957;-72
2023/07/21 04:42:51;;;;;;;;;;;;;;;;;;;;;
2023/07/21 04:56:00;;;;;;;4.50;3.70;;;;;;;16.30;75.63;98444.71;226390;1277;22550;-72
2023/07/21 05:01:37;;;;;;;6.20;3.70;;;;;;;16.37;75.64;98454.87;226441;1277;22911;-72
2023/07/21 05:08:00;;;;;;;4.90;4.10;;;;;;;16.41;75.39;98465.09;226200;1277;24248;-74
2023/07/21 05:14:38;;;;;;;;;;;;;;;;;;;;;
2023/07/21 05:20:37;;;;;;;9.10;4.70;;;;;;;16.31;75.30;98484.55;226542;1277;22576;-72
2023/07/21 05:26:42;;;;;;;4.30;3.90;;;;;;;16.25;75.49;98488.59;226477;1277;22556;-72
2023/07/21 05:32:58;;;;;;;;;;;;;;;;;;;;;
2023/07/21 05:39:27;;;;;;;4.70;4.00;;;;;;;16.17;75.56;98512.98;226284;1277;22545;-72
2023/07/21 05:45:05;;;;;;;5.10;4.60;;;;;;;16.11;75.69;98503.18;226349;1277;22550;-73
2023/07/21 05:51:07;;;;;;;6.40;4.30;;;;;;;16.08;76.13;98505.98;226342;1269;22621;-72
2023/07/21 05:57:05;;;;;;;6.60;4.20;;;;;;;16.04;76.11;98499.84;226334;1272;22560;-72
2023/07/21 06:04:05;;;;;;;;;;;;;;;;;;;;;
2023/07/21 06:10:41;;;;;;;;;;;;;;;;;;;;;
2023/07/21 06:16:46;;;;;;;8.10;4.90;;;;;;;16.25;76.41;98489.41;225680;1270;22881;-71
2023/07/21 06:22:35;;;;;;;;;;;;;;;;;;;;;
2023/07/21 06:33:38;;;;;;;5.10;4.70;;;;;;;16.76;75.68;98496.52;225603;1260;25999;-71
2023/07/21 06:39:17;;;;;;;;;;;;;;;;;;;;;
2023/07/21 06:45:52;;;;;;;5.60;5.00;;;;;;;16.90;75.16;98500.88;225924;1262;22560;-71
2023/07/21 06:51:42;;;;;;;6.70;5.00;;;;;;;17.00;75.37;98493.33;225999;1273;25121;-72
2023/07/21 06:57:27;;;;;;;5.50;5.00;;;;;;;17.08;75.39;98484.90;226112;1275;22568;-72
2023/07/21 07:03:12;;;;;;;;;;;;;;;;;;;;;
2023/07/21 07:15:16;;;;;;;6.50;4.60;;;;;;;17.59;74.65;98470.84;226156;1271;24757;-71
2023/07/21 07:22:05;;;;;;;;;;;;;;;;;;;;;
2023/07/21 07:28:17;;;;;;;6.40;5.10;;;;;;;18.09;73.48;98475.65;226162;1265;22534;-71
2023/07/21 07:33:34;;;;;;;5.90;4.60;;;;;;;18.24;73.46;98476.30;226103;1254;22619;-72
2023/07/21 07:38:45;;;;;;;5.20;4.70;;;;;;;18.51;73.62;98476.17;226241;1273;22537;-71
2023/07/21 07:44:58;;;;;;;7.90;5.40;;;;;;;18.89;73.34;98469.31;226137;1271;22565;-71
2023/07/21 07:50:25;;;;;;;7.20;6.50;;;;;;;19.29;72.68;98462.80;226225;1269;22570;-71
2023/07/21 07:56:14;;;;;;;7.00;6.30;;;;;;;19.64;71.81;98465.48;226058;1267;22520;-70
2023/07/21 08:01:27;;;;;;;7.10;5.90;;;;;;;19.88;70.93;98477.55;225854;1270;22543;-72
2023/07/21 08:06:48;;;;;;;7.10;5.70;;;;;;;20.07;70.67;98475.78;226076;1274;22504;-72
2023/07/21 08:11:56;;;;;;;7.60;5.60;;;;;;;20.24;70.17;98480.98;226137;1276;25265;-71
2023/07/21 08:17:11;;;;;;;5.70;4.20;;;;;;;20.30;69.32;98480.77;226215;1270;22582;-71
2023/07/21 08:22:23;;;;;;;7.60;5.40;;;;;;;20.38;68.88;98484.02;226146;1271;22567;-72
2023/07/21 08:27:41;;;;;;;5.40;4.50;;;;;;;20.57;68.60;98477.21;226126;1270;22544;-72
2023/07/21 08:32:52;;;;;;;6.00;4.20;;;;;;;20.85;68.15;98475.10;225937;1270;24204;-72
2023/07/21 08:38:06;;;;;;;7.00;4.60;;;;;;;21.10;67.11;98479.45;225897;1274;23126;-72
2023/07/21 08:43:09;;;;;;;8.80;4.80;;;;;;;21.44;67.10;98489.58;225972;1274;22519;-73
2023/07/21 08:48:17;;;;;;;8.00;5.60;;;;;;;21.71;66.82;98494.69;226167;1267;22547;-72
2023/07/21 08:53:41;;;;;;;6.70;5.40;;;;;;;21.96;66.32;98493.91;226092;1257;22537;-72
2023/07/21 08:58:56;;;;;;;;;;;;;;;;;;;;;
2023/07/21 09:04:22;;;;;;;9.60;5.30;;;;;;;22.35;64.92;98484.86;226187;1255;22539;-72
2023/07/21 09:09:35;;;;;;;4.10;3.70;;;;;;;22.46;64.47;98488.18;226240;1257;22546;-73
2023/07/21 09:14:42;;;;;;;3.90;3.40;;;;;;;22.78;64.01;98484.77;226151;1273;22713;-71
2023/07/21 09:19:55;;;;;;;4.60;4.10;;;;;;;23.31;63.44;98484.95;226195;1269;22547;-71
2023/07/21 09:25:22;;;;;;;6.90;3.70;;;;;;;23.87;61.95;98480.90;225844;1255;22544;-72
2023/07/21 09:30:25;;;;;;;3.60;3.00;;;;;;;24.25;61.02;98478.12;225975;1270;22675;-71
2023/07/21 09:41:02;;;;;;;6.60;4.30;;;;;;;24.47;58.64;98472.46;226121;1273;22533;-72
2023/07/21 09:46:20;;;;;;;4.90;4.40;;;;;;;24.54;58.47;98464.59;225954;1254;22574;-71
2023/07/21 09:51:26;;;;;;;6.40;4.40;;;;;;;24.51;57.77;98461.34;225979;1270;22594;-71
2023/07/21 09:57:05;;;;;;;4.40;3.50;;;;;;;24.47;57.81;98466.89;226069;1276;22775;-72
2023/07/21 10:02:22;;;;;;;4.10;3.40;;;;;;;24.44;57.19;98465.85;225989;1276;22544;-71
2023/07/21 10:07:46;;;;;;;4.20;3.10;;;;;;;24.37;56.56;98455.64;226197;1270;22640;-71
2023/07/21 10:13:14;;;;;;;3.90;3.60;;;;;;;24.38;56.21;98448.84;225952;1276;22647;-72
2023/07/21 10:18:21;;;;;;;;;;;;;;;24.44;56.47;98445.64;225984;1275;22546;-72
2023/07/21 10:23:29;;;;;;;4.40;3.30;;;;;;;24.52;56.16;98439.82;226052;1273;22540;-73
2023/07/21 10:28:46;;;;;;;4.80;4.10;;;;;;;24.70;55.94;98435.86;226135;1254;22548;-73
2023/07/21 10:34:06;;;;;;;3.60;3.30;;;;;;;25.04;56.02;98430.73;226044;1257;22548;-72
2023/07/21 10:39:52;;;;;;;5.50;3.70;;;;;;;25.23;54.71;98427.19;226174;1270;25247;-74
2023/07/21 10:45:39;;;;;;;4.10;3.80;;;;;;;25.39;55.17;98423.34;226186;1269;22547;-73
2023/07/21 10:51:31;;;;;;;3.30;2.90;;;;;;;25.48;54.08;98409.35;226159;1270;22709;-73
2023/07/21 10:56:53;;;;;;;3.70;3.40;;;;;;;25.55;53.89;98400.58;226024;1270;22562;-73
2023/07/21 11:01:58;;;;;;;4.00;3.40;;;;;;;25.73;54.39;98399.30;226103;1274;22704;-74
2023/07/21 11:07:03;;;;;;;3.60;3.10;;;;;;;25.75;52.73;98392.38;226011;1270;22540;-73
2023/07/21 11:12:38;;;;;;;4.10;3.80;;;;;;;25.61;53.13;98384.59;225734;1260;25244;-78
2023/07/21 11:17:41;;;;;;;4.30;3.70;;;;;;;25.80;53.77;98375.48;225930;1254;22577;-74
2023/07/21 11:22:54;;;;;;;5.20;3.70;;;;;;;25.98;52.88;98375.58;226402;1270;23359;-73
2023/07/21 11:28:06;;;;;;;3.30;3.00;;;;;;;25.95;51.83;98366.81;226341;1260;22537;-73
2023/07/21 11:33:22;;;;;;;3.20;2.90;;;;;;;26.00;51.86;98361.93;226181;1272;24414;-73
2023/07/21 11:38:28;;;;;;;4.90;3.30;;;;;;;26.13;51.64;98355.27;226076;1268;25354;-73
2023/07/21 11:44:05;;;;;;;4.00;3.30;;;;;;;26.03;51.10;98350.78;226019;1268;22636;-74
2023/07/21 11:49:14;;;;;;;6.70;6.10;;;;;;;26.12;51.26;98343.90;226088;1270;22537;-73
2023/07/21 11:54:28;;;;;;;7.10;5.60;;;;;;;26.20;51.11;98336.60;226289;1268;22559;-73
2023/07/21 11:59:33;;;;;;;6.30;3.00;;;;;;;26.37;50.97;98324.00;226137;1260;22549;-73
2023/07/21 12:04:58;;;;;;;;;;;;;;;;;;;;;
2023/07/21 12:10:26;;;;;;;5.60;3.30;;;;;;;26.46;48.85;98321.17;226126;1273;25327;-74
2023/07/21 12:15:29;;;;;;;3.90;3.00;;;;;;;26.25;49.86;98322.00;226082;1256;22571;-73
2023/07/21 12:20:36;;;;;;;4.10;3.30;;;;;;;26.17;49.61;98325.71;225947;1269;24272;-73
2023/07/21 12:25:41;;;;;;;4.10;2.80;;;;;;;26.31;49.93;98328.17;226026;1271;22576;-73
2023/07/21 12:30:53;;;;;;;4.80;3.10;;;;;;;26.50;49.30;98324.02;226162;1273;22601;-73
2023/07/21 12:36:03;;;;;;;3.70;3.40;;;;;;;26.47;49.10;98320.06;226000;1257;22538;-72
2023/07/21 12:41:28;;;;;;;3.50;2.80;;;;;;;26.78;49.69;98309.95;226107;1273;25384;-72
2023/07/21 12:46:30;;;;;;;3.30;2.90;;;;;;;27.01;49.32;98301.70;226156;1257;24203;-73
2023/07/21 12:51:33;;;;;;;3.00;2.70;;;;;;;27.04;49.03;98299.56;226049;1276;22519;-73
2023/07/21 12:56:46;;;;;;;5.40;3.50;;;;;;;27.17;49.09;98302.30;226157;1265;22569;-74
2023/07/21 13:01:48;;;;;;;4.00;2.70;;;;;;;27.39;48.99;98306.64;226154;1270;22518;-74
2023/07/21 13:06:59;;;;;;;3.80;3.40;;;;;;;27.64;48.28;98306.25;226218;1266;22576;-74
2023/07/21 13:12:02;;;;;;;5.50;3.50;;;;;;;27.81;48.45;98303.16;226191;1269;24785;-75
2023/07/21 13:17:05;;;;;;;3.80;3.00;;;;;;;27.84;48.65;98292.33;226220;1271;22658;-74
2023/07/21 13:22:07;;;;;;;5.40;3.30;;;;;;;27.94;48.48;98274.73;226192;1257;22533;-73
2023/07/21 13:27:09;;;;;;;3.30;3.00;;;;;;;28.00;48.28;98275.49;226108;1255;22577;-73
2023/07/21 13:32:23;;;;;;;3.30;3.00;;;;;;;28.10;48.49;98262.33;226135;1269;25460;-72
2023/07/21 13:37:26;;;;;;;3.10;2.80;;;;;;;28.11;48.28;98258.17;226062;1254;25189;-72
2023/07/21 13:42:34;;;;;;;3.00;2.80;;;;;;;28.01;47.99;98267.85;226034;1254;22576;-71
2023/07/21 13:47:36;;;;;;;3.20;3.00;;;;;;;27.94;47.94;98255.42;225943;1268;22567;-71
2023/07/21 13:52:56;;;;;;;5.10;3.20;;;;;;;28.07;48.01;98246.11;225928;1270;23695;-72
2023/07/21 13:57:58;;;;;;;3.80;3.50;;;;;;;28.22;48.01;98252.98;225943;1261;25402;-71
2023/07/21 14:03:00;;;;;;;4.60;3.90;;;;;;;28.11;47.80;98256.39;226016;1271;23045;-72
2023/07/21 14:08:05;;;;;;;10.90;9.80;;;;;;;27.96;48.22;98255.54;226107;1276;23716;-72
2023/07/21 14:13:19;;;;;;;3.70;3.40;;;;;;;27.72;47.84;98253.55;226372;1268;22661;-71
2023/07/21 14:18:24;;;;;;;4.50;4.00;;;;;;;27.50;48.58;98248.17;226184;1276;22565;-71
2023/07/21 14:23:28;;;;;;;4.30;3.90;;;;;;;27.55;49.01;98242.38;226438;1276;22544;-72
2023/07/21 14:28:34;;;;;;;4.10;3.70;;;;;;;27.72;49.33;98243.95;226265;1272;22548;-72
2023/07/21 14:33:37;;;;;;;4.00;3.60;;;;;;;27.73;49.07;98240.23;226341;1269;22585;-71
2023/07/21 14:38:48;;;;;;;4.30;3.90;;;;;;;27.66;48.96;98229.28;226362;1273;22536;-73
2023/07/21 14:43:53;;;;;;;4.10;3.60;;;;;;;27.59;49.19;98222.43;226495;1270;22546;-72
2023/07/21 14:49:21;;;;;;;4.60;3.90;;;;;;;27.56;49.33;98233.34;226553;1276;22557;-72
2023/07/21 14:54:43;;;;;;;6.30;4.10;;;;;;;27.53;49.21;98229.86;226579;1276;22553;-72
2023/07/21 15:00:14;;;;;;;4.10;3.80;;;;;;;27.46;49.32;98222.36;226546;1276;22548;-72
2023/07/21 15:05:22;;;;;;;4.50;4.10;;;;;;;27.37;49.68;98217.11;226576;1273;22599;-72
2023/07/21 15:10:33;;;;;;;5.70;3.90;;;;;;;27.30;49.86;98207.23;226480;1274;22552;-72
2023/07/21 15:15:38;;;;;;;5.30;4.80;;;;;;;27.21;49.87;98193.43;226558;1273;25405;-72
2023/07/21 15:21:01;;;;;;;4.60;4.10;;;;;;;27.08;50.08;98187.98;226541;1274;24231;-72
2023/07/21 15:26:26;;;;;;;5.70;4.70;;;;;;;27.07;50.30;98173.98;226586;1276;22536;-72
2023/07/21 15:31:47;;;;;;;;;;;;;;;;;;;;;
2023/07/21 15:37:07;;;;;;;5.90;4.10;;;;;;;26.83;50.45;98154.73;226524;1276;22535;-72
2023/07/21 15:42:29;;;;;;;;;;;;;;;;;;;;;
2023/07/21 15:48:05;;;;;;;5.40;4.60;;;;;;;26.66;51.08;98154.04;226574;1276;22578;-73
2023/07/21 15:53:30;;;;;;;4.30;3.90;;;;;;;26.52;51.45;98150.17;226586;1273;24259;-73
2023/07/21 15:59:38;;;;;;;5.80;4.10;;;;;;;26.24;52.03;98154.50;226599;1276;25332;-72
2023/07/21 16:05:05;;;;;;;4.10;3.70;;;;;;;26.10;52.22;98151.50;226573;1273;22520;-71
2023/07/21 16:10:14;;;;;;;6.00;4.20;;;;;;;25.92;52.66;98143.23;226582;1266;22544;-72
2023/07/21 16:16:05;;;;;;;4.10;3.80;;;;;;;25.81;53.07;98141.15;226537;1276;25407;-72
2023/07/21 16:21:39;;;;;;;4.40;3.70;;;;;;;25.68;53.27;98123.83;222492;1276;5409215;-72
2023/07/21 16:26:56;;;;;;;3.80;3.50;;;;;;;25.55;53.08;98109.70;226593;1255;22532;-72
2023/07/21 16:32:22;;;;;;;4.00;3.70;;;;;;;25.36;53.51;98106.04;226617;1273;24212;-72
2023/07/21 16:38:06;;;;;;;3.60;3.30;;;;;;;25.13;53.76;98108.77;226611;1269;22536;-72
2023/07/21 16:43:31;;;;;;;4.20;3.80;;;;;;;24.93;54.31;98113.81;226601;1276;22521;-72
2023/07/21 16:48:57;;;;;;;4.00;3.20;;;;;;;24.69;54.89;98109.45;226594;1276;22809;-72
2023/07/21 16:54:00;;;;;;;5.60;4.10;;;;;;;24.50;55.40;98105.88;226584;1276;22536;-72
2023/07/21 16:59:19;;;;;;;4.40;3.60;;;;;;;24.33;55.75;98100.15;226633;1276;25499;-71
2023/07/21 17:04:35;;;;;;;4.60;4.20;;;;;;;24.21;56.21;98100.73;226619;1271;22533;-72
2023/07/21 17:09:43;;;;;;;3.90;3.30;;;;;;;24.13;56.26;98097.34;226658;1276;25313;-72
2023/07/21 17:15:17;;;;;;;;;;;;;;;;;;;;;
2023/07/21 17:20:39;;;;;;;4.60;3.70;;;;;;;23.91;56.82;98082.55;226544;1263;22538;-72
2023/07/21 17:25:47;;;;;;;5.50;4.30;;;;;;;23.83;57.06;98085.02;226563;1276;23199;-72
2023/07/21 17:31:10;;;;;;;6.30;4.40;;;;;;;23.76;57.10;98078.44;226688;1273;24242;-71
2023/07/21 17:36:41;;;;;;;5.20;4.10;;;;;;;23.64;57.20;98073.31;226662;1276;22560;-71
2023/07/21 17:41:44;;;;;;;5.90;3.90;;;;;;;23.55;57.57;98071.92;226708;1272;22544;-71
2023/07/21 17:46:58;;;;;;;6.60;4.00;;;;;;;23.43;57.93;98074.57;226681;1273;25658;-71
2023/07/21 17:52:06;;;;;;;4.90;4.50;;;;;;;23.26;58.28;98073.75;226660;1276;24244;-71
2023/07/21 17:57:09;;;;;;;6.30;4.00;;;;;;;23.02;58.59;98074.60;226688;1271;22599;-72
2023/07/21 18:02:32;;;;;;;4.30;3.90;;;;;;;22.76;59.23;98074.92;226541;1273;22467;-69
2023/07/21 18:07:45;;;;;;;5.00;3.80;;;;;;;22.52;59.85;98069.02;226647;1276;22521;-71
2023/07/21 18:12:50;;;;;;;4.70;4.00;;;;;;;22.32;60.62;98063.64;226634;1276;22534;-72
2023/07/21 18:17:55;;;;;;;5.10;3.90;;;;;;;22.23;61.07;98060.29;226537;1271;22536;-72
2023/07/21 18:23:27;;;;;;;6.00;3.50;;;;;;;22.09;61.25;98060.91;226701;1271;22571;-71
2023/07/21 18:29:00;;;;;;;;;;;;;;;;;;;;;
2023/07/21 18:34:15;;;;;;;9.30;5.10;;;;;;;21.67;61.96;98065.34;226590;1276;22548;-72
2023/07/21 18:39:17;;;;;;;6.30;4.30;;;;;;;21.49;62.61;98056.41;226681;1268;22553;-71
2023/07/21 18:44:49;;;;;;;;;;;;;;;;;;;;;
2023/07/21 18:50:12;;;;;;;5.50;3.90;;;;;;;21.20;64.03;98049.10;226510;1276;22537;-71
2023/07/21 18:55:28;;;;;;;;;;;;;;;;;;;;;
2023/07/21 19:00:57;;;;;;;;;;;;;;;;;;;;;
2023/07/21 19:06:37;;;;;;;7.70;5.10;;;;;;;21.00;65.46;98066.87;226560;1276;25397;-72
2023/07/21 19:12:09;;;;;;;7.50;5.20;;;;;;;20.95;65.76;98066.92;226666;1276;22547;-72
2023/07/21 19:17:33;;;;;;;7.80;4.70;;;;;;;20.91;65.82;98076.40;226645;1258;22681;-72
2023/07/21 19:22:57;;;;;;;5.90;4.60;;;;;;;20.87;65.96;98088.45;226598;1274;22529;-72
2023/07/21 19:28:04;;;;;;;5.80;4.30;;;;;;;20.85;66.24;98096.88;226704;1271;24252;-72
2023/07/21 19:33:33;;;;;;;6.40;4.20;;;;;;;20.87;66.26;98102.08;226636;1276;25264;-71
2023/07/21 19:38:45;;;;;;;11.20;4.50;;;;;;;20.87;66.46;98107.89;226574;1273;22671;-72
2023/07/21 19:43:50;;;;;;;5.10;4.60;;;;;;;20.88;66.98;98123.78;226606;1274;22535;-73
2023/07/21 19:49:01;;;;;;;7.30;5.20;;;;;;;20.86;67.27;98114.48;226637;1269;23234;-72
2023/07/21 19:54:27;;;;;;;8.70;5.90;;;;;;;20.79;67.70;98111.33;226544;1276;25261;-71
2023/07/21 19:59:35;;;;;;;11.00;5.90;;;;;;;20.68;68.51;98128.58;226564;1274;23334;-72
2023/07/21 20:04:50;;;;;;;6.50;5.70;;;;;;;20.50;69.01;98143.98;226634;1273;22541;-71
2023/07/21 20:10:25;;;;;;;8.40;5.40;;;;;;;20.28;69.65;98171.98;226717;1276;22535;-73
2023/07/21 20:16:09;;;;;;;6.40;5.70;;;;;;;20.04;70.52;98178.68;226671;1276;22523;-71
2023/07/21 20:21:54;;;;;;;6.70;5.80;;;;;;;19.77;71.86;98198.05;226661;1274;22537;-72
2023/07/21 20:27:36;;;;;;;7.30;5.90;;;;;;;19.49;73.29;98223.14;226551;1276;22552;-72
2023/07/21 20:32:42;;;;;;;7.80;5.30;;;;;;;19.20;74.85;98238.24;226684;1271;22540;-74
2023/07/21 20:38:14;;;;;;;9.00;5.90;;;;;;;19.00;75.02;98232.48;226673;1276;22543;-71
2023/07/21 20:43:34;;;;;;;7.70;6.00;;;;;;;18.87;75.46;98238.89;226718;1274;25635;-72
2023/07/21 20:48:57;;;;;;;6.90;5.80;;;;;;;18.70;76.04;98234.94;226608;1260;25412;-72
2023/07/21 20:54:05;;;;;;;7.10;6.00;;;;;;;18.58;76.50;98228.23;226630;1276;22643;-72
2023/07/21 20:59:07;;;;;;;8.20;6.60;;;;;;;18.48;77.03;98228.02;226658;1273;22644;-72
2023/07/21 21:04:13;;;;;;;8.00;6.20;;;;;;;18.41;77.30;98222.10;226662;1272;23289;-73
2023/07/21 21:09:18;;;;;;;7.60;6.80;;;;;;;18.36;77.65;98216.76;226683;1274;22534;-72
2023/07/21 21:15:24;;;;;;;;;;;;;;;;;;;;;
2023/07/21 21:21:28;;;;;;;7.40;6.50;;;;;;;18.14;78.20;98209.30;226652;1273;22543;-71
2023/07/21 21:33:34;;;;;;;8.80;7.60;;;;;;;17.87;78.80;98197.65;226700;1276;22544;-72
2023/07/21 21:45:53;;;;;;;7.00;6.30;;;;;;;17.66;79.23;98196.69;226716;1276;22554;-72
2023/07/21 21:51:16;;;;;;;7.20;6.10;;;;;;;17.55;79.50;98199.45;226714;1276;22599;-72
2023/07/21 21:56:56;;;;;;;8.40;5.30;;;;;;;17.45;79.61;98201.36;226669;1276;22640;-72
2023/07/21 22:02:35;;;;;;;6.90;6.20;;;;;;;17.35;79.81;98202.45;226683;1276;25402;-72
2023/07/21 22:08:43;;;;;;;7.90;5.90;;;;;;;17.26;80.27;98200.13;226603;1276;22569;-73
2023/07/21 22:15:18;;;;;;;;;;;;;;;;;;;;;
2023/07/21 22:21:32;;;;;;;7.30;6.70;;;;;;;17.17;80.93;98228.52;226676;1276;22536;-71
2023/07/21 22:27:23;;;;;;;;;;;;;;;;;;;;;
2023/07/21 22:34:05;;;;;;;;;;;;;;;;;;;;;
2023/07/21 22:40:19;;;;;;;19.40;17.50;;;;;;;17.17;81.73;98245.60;226361;1276;22562;-71
2023/07/21 22:47:03;;;;;;;;;;;;;;;;;;;;;
2023/07/21 22:52:48;;;;;;;9.20;8.10;;;;;;;17.17;82.10;98238.70;226708;1276;22544;-72
2023/07/21 22:58:11;;;;;;;11.30;10.10;;;;;;;17.14;82.41;98247.15;226518;1276;22566;-71
2023/07/21 23:10:38;;;;;;;12.70;11.40;;;;;;;17.07;82.94;98259.95;226502;1276;22527;-71
2023/07/21 23:17:07;;;;;;;14.30;12.80;;;;;;;17.05;83.23;98262.13;226555;1276;22555;-71
2023/07/21 23:23:43;;;;;;;13.20;11.50;;;;;;;17.04;83.40;98260.45;226641;1276;22537;-72
2023/07/21 23:36:32;;;;;;;;;;;;;;;;;;;;;
2023/07/21 23:49:50;;;;;;;14.20;12.60;;;;;;;17.04;84.09;98264.61;226439;1276;22609;-71
2023/07/21 23:56:42;;;;;;;13.70;12.30;;;;;;;17.03;84.33;98262.34;226682;1276;22519;-71
